Indianola, Iowa
Current Conditions -  °F | °C
As of 10:19 PM on Wednesday 24 Dec 2014 (Local Time) from KDSM Reporting Station
Overcast Overcast  
Wind Chill: 22°   Ceiling: 800
Heat Index: 32°   Visibility: 9mi
Dew Point: 28°   Wind: 15mph
Humidity: 85%   Direction: 230°SW
Pressure: 29.74"   Gusts: NA
Location:  41.36°N, 93.56°W
Report Text: KDSM 250419Z 23013KT 9SM OVC008 00/M02 A2974 RMK AO2 CIG 008V011 T00001022
Loading
Personal Weather Stations






























Interactive Weather Map New forecast layout! Learn more

10-Day Weather Forecast

Advertisements
Track Severe Weather on mobile